createdAt,value
2018-02-21T00:00:23.056Z,60.07
2018-02-21T00:02:50.639Z,72.43
2018-02-21T00:05:19.022Z,65.67
2018-02-21T00:07:46.607Z,58.80
2018-02-21T00:10:14.968Z,66.10
2018-02-21T00:12:42.550Z,76.07
2018-02-21T00:15:10.162Z,69.27
2018-02-21T00:17:37.736Z,68.50
2018-02-21T00:20:05.338Z,65.50
2018-02-21T00:22:32.956Z,73.77
2018-02-21T00:25:01.334Z,76.60
2018-02-21T00:27:28.919Z,74.57
2018-02-21T00:29:56.522Z,72.60
2018-02-21T00:32:24.109Z,65.87
2018-02-21T00:34:51.685Z,64.57
2018-02-21T00:37:19.294Z,70.80
2018-02-21T00:39:46.882Z,59.37
2018-02-21T00:42:15.263Z,61.87
2018-02-21T00:44:42.862Z,59.70
2018-02-21T00:47:11.220Z,63.83
2018-02-21T00:49:38.836Z,64.57
2018-02-21T00:52:06.473Z,57.90
2018-02-21T00:54:34.029Z,65.53
2018-02-21T00:57:01.620Z,66.93
2018-02-21T00:59:29.204Z,57.83
2018-02-21T01:01:57.591Z,62.43
2018-02-21T01:04:25.172Z,61.13
2018-02-21T01:06:53.533Z,55.07
2018-02-21T01:09:21.133Z,60.53
2018-02-21T01:11:49.554Z,58.80
2018-02-21T01:14:17.156Z,52.03
2018-02-21T01:16:45.501Z,64.37
2018-02-21T01:19:13.101Z,59.90
2018-02-21T01:21:41.477Z,61.67
2018-02-21T01:24:09.076Z,59.37
2018-02-21T01:26:36.660Z,58.53
2018-02-21T01:29:04.259Z,55.23
2018-02-21T01:31:31.833Z,61.40
2018-02-21T01:34:00.204Z,67.57
2018-02-21T01:36:27.776Z,57.50
2018-02-21T01:38:55.373Z,55.17
2018-02-21T01:41:23.752Z,47.27
2018-02-21T01:43:51.360Z,58.00
2018-02-21T01:46:18.991Z,60.43
2018-02-21T01:48:46.612Z,57.60
2018-02-21T01:51:14.228Z,65.87
2018-02-21T01:53:41.804Z,59.50
2018-02-21T01:56:09.408Z,56.10
2018-02-21T01:58:37.739Z,54.57
2018-02-21T02:01:05.320Z,63.90
2018-02-21T02:03:33.668Z,55.50
2018-02-21T02:06:01.247Z,58.87
2018-02-21T02:08:28.836Z,69.23
2018-02-21T02:10:56.421Z,66.83
2018-02-21T02:13:24.028Z,69.03
2018-02-21T02:15:51.640Z,65.47
2018-02-21T02:18:19.255Z,66.27
2018-02-21T02:20:47.629Z,91.60
2018-02-21T02:23:15.227Z,102.40
2018-02-21T02:25:42.805Z,88.83
2018-02-21T02:28:10.413Z,87.67
2018-02-21T02:30:37.991Z,81.37
2018-02-21T02:33:05.581Z,71.90
2018-02-21T02:35:33.170Z,62.53
2018-02-21T02:38:00.805Z,75.90
2018-02-21T02:40:28.388Z,56.43
2018-02-21T02:42:55.995Z,57.80
2018-02-21T02:45:23.585Z,58.23
2018-02-21T02:47:51.179Z,65.70
2018-02-21T02:50:19.534Z,63.10
2018-02-21T02:52:47.153Z,67.80
2018-02-21T02:55:14.729Z,55.00
2018-02-21T02:57:42.308Z,54.80
2018-02-21T03:00:09.904Z,60.93
2018-02-21T03:02:37.485Z,66.43
2018-02-21T03:05:05.091Z,59.80
2018-02-21T03:07:33.475Z,70.23
2018-02-21T03:10:01.069Z,66.27
2018-02-21T03:12:29.412Z,68.57
2018-02-21T03:14:57.009Z,60.90
2018-02-21T03:17:24.590Z,67.33
2018-02-21T03:19:52.981Z,62.73
2018-02-21T03:22:21.330Z,60.97
2018-02-21T03:24:48.929Z,68.53
2018-02-21T03:27:16.516Z,70.23
2018-02-21T03:29:44.905Z,62.93
2018-02-21T03:32:12.484Z,54.10
2018-02-21T03:34:40.834Z,63.73
2018-02-21T03:37:08.424Z,65.40
2018-02-21T03:39:35.998Z,61.73
2018-02-21T03:42:03.598Z,65.77
2018-02-21T03:44:31.941Z,57.87
2018-02-21T03:46:59.552Z,67.83
2018-02-21T03:49:27.897Z,62.97
2018-02-21T03:51:55.488Z,63.33
2018-02-21T03:54:23.071Z,62.40
2018-02-21T03:56:50.681Z,65.27
2018-02-21T03:59:18.261Z,65.67
2018-02-21T04:01:45.860Z,54.80
2018-02-21T04:04:13.432Z,63.90
2018-02-21T04:06:41.033Z,70.63
2018-02-21T04:09:08.637Z,63.90
2018-02-21T04:11:36.248Z,74.87
2018-02-21T04:14:03.831Z,56.47
2018-02-21T04:16:31.409Z,67.47
2018-02-21T04:19:00.805Z,73.93
2018-02-21T04:21:28.393Z,58.57
2018-02-21T04:23:55.993Z,57.53
2018-02-21T04:26:24.331Z,55.73
2018-02-21T04:28:51.927Z,55.13
2018-02-21T04:31:19.508Z,59.63
2018-02-21T04:33:47.108Z,60.13
2018-02-21T04:36:15.457Z,67.33
2018-02-21T04:38:43.633Z,53.73
2018-02-21T04:41:11.214Z,64.70
2018-02-21T04:43:38.836Z,59.63
2018-02-21T04:46:06.436Z,57.73
2018-02-21T04:48:34.017Z,61.27
2018-02-21T04:51:01.616Z,59.10
2018-02-21T04:53:29.202Z,58.40
2018-02-21T04:56:02.584Z,65.37
2018-02-21T05:01:38.636Z,65.03
2018-02-21T05:04:06.996Z,65.10
2018-02-21T05:06:34.606Z,68.57
2018-02-21T05:09:02.189Z,61.37
2018-02-21T05:11:29.792Z,65.13
2018-02-21T05:13:57.364Z,86.60
2018-02-21T05:16:24.961Z,73.57
2018-02-21T05:18:52.536Z,59.73
2018-02-21T05:21:20.160Z,62.00
2018-02-21T05:23:47.740Z,57.33
2018-02-21T05:26:15.332Z,57.27
2018-02-21T05:28:42.904Z,62.67
2018-02-21T05:31:10.506Z,64.70
2018-02-21T05:33:38.104Z,70.53
2018-02-21T05:36:05.705Z,54.97
2018-02-21T05:38:33.280Z,61.80
2018-02-21T05:41:00.880Z,55.77
2018-02-21T05:43:28.515Z,57.40
2018-02-21T05:45:56.139Z,55.40
2018-02-21T05:48:24.509Z,49.73
2018-02-21T05:50:52.087Z,63.87
2018-02-21T05:53:19.686Z,55.13
2018-02-21T05:55:48.036Z,54.43
2018-02-21T05:58:15.627Z,62.40
2018-02-21T06:00:43.208Z,48.17
2018-02-21T06:03:12.308Z,66.63
2018-02-21T06:05:39.881Z,63.70
2018-02-21T06:08:07.481Z,67.93
2018-02-21T06:10:35.831Z,60.30
2018-02-21T06:13:03.441Z,67.90
2018-02-21T06:15:31.795Z,73.80
2018-02-21T06:17:59.417Z,70.93
2018-02-21T06:20:27.004Z,60.93
2018-02-21T06:22:54.635Z,62.00
2018-02-21T06:25:22.206Z,62.43
2018-02-21T06:27:49.784Z,63.20
2018-02-21T06:30:18.140Z,62.10
2018-02-21T06:32:45.732Z,59.80
2018-02-21T06:35:13.344Z,63.03
2018-02-21T06:37:40.926Z,68.70
2018-02-21T06:40:08.552Z,64.83
2018-02-21T06:42:36.131Z,51.47
2018-02-21T06:45:03.737Z,56.87
2018-02-21T06:47:31.316Z,57.27
2018-02-21T06:49:58.930Z,71.03
2018-02-21T06:52:26.516Z,63.17
2018-02-21T06:54:54.904Z,55.77
2018-02-21T06:57:22.485Z,63.17
2018-02-21T06:59:50.073Z,58.63
2018-02-21T07:02:28.191Z,54.03
2018-02-21T07:04:56.534Z,54.40
2018-02-21T07:07:24.128Z,54.80
2018-02-21T07:09:51.708Z,55.47
2018-02-21T07:12:19.324Z,60.47
2018-02-21T07:14:46.904Z,54.23
2018-02-21T07:17:14.507Z,53.07
2018-02-21T07:19:42.085Z,62.10
2018-02-21T07:22:09.688Z,62.93
2018-02-21T07:24:38.021Z,55.03
2018-02-21T07:27:05.608Z,55.90
2018-02-21T07:29:33.183Z,55.30
2018-02-21T07:32:00.785Z,53.90
2018-02-21T07:34:29.140Z,53.10
2018-02-21T07:36:56.772Z,61.93
2018-02-21T07:39:25.161Z,75.87
2018-02-21T07:41:53.461Z,65.73
2018-02-21T07:44:21.065Z,63.97
2018-02-21T07:46:48.647Z,60.03
2018-02-21T07:49:16.241Z,56.77
2018-02-21T07:51:43.841Z,58.47
2018-02-21T07:54:11.432Z,66.50
2018-02-21T07:56:39.008Z,54.53
2018-02-21T07:59:06.608Z,55.43
2018-02-21T08:01:34.183Z,55.07
2018-02-21T08:04:01.788Z,59.53
2018-02-21T08:06:30.168Z,56.53
2018-02-21T08:08:57.773Z,53.70
2018-02-21T08:11:25.348Z,55.27
2018-02-21T08:13:52.953Z,57.13
2018-02-21T08:16:20.530Z,65.27
2018-02-21T08:18:48.125Z,55.27
2018-02-21T08:21:16.469Z,65.37
2018-02-21T08:23:44.083Z,62.33
2018-02-21T08:26:11.674Z,59.00
2018-02-21T08:28:40.048Z,58.73
2018-02-21T08:31:07.622Z,57.43
2018-02-21T08:33:35.228Z,59.20
2018-02-21T08:36:02.829Z,58.27
2018-02-21T08:38:30.411Z,53.50
2018-02-21T08:40:58.005Z,53.27
2018-02-21T08:43:25.576Z,59.83
2018-02-21T08:45:53.172Z,56.17
2018-02-21T08:48:21.523Z,62.87
2018-02-21T08:50:49.132Z,65.97
2018-02-21T08:53:17.480Z,48.67
2018-02-21T08:55:45.085Z,59.07
2018-02-21T08:58:13.423Z,59.17
2018-02-21T09:00:41.041Z,61.23
2018-02-21T09:03:08.641Z,54.73
2018-02-21T09:05:36.232Z,59.10
2018-02-21T09:08:03.804Z,56.60
2018-02-21T09:10:31.439Z,61.20
2018-02-21T09:12:59.048Z,52.70
2018-02-21T09:15:26.612Z,51.13
2018-02-21T09:17:54.229Z,44.80
2018-02-21T09:20:21.807Z,51.43
2018-02-21T09:22:49.405Z,44.40
2018-02-21T09:25:17.763Z,46.43
2018-02-21T09:27:45.361Z,42.77
2018-02-21T09:30:12.928Z,43.20
2018-02-21T09:32:40.525Z,41.17
2018-02-21T09:35:08.865Z,41.93
2018-02-21T09:37:36.468Z,47.63
2018-02-21T09:40:04.812Z,38.87
2018-02-21T09:42:32.407Z,42.30
2018-02-21T09:44:59.983Z,40.90
2018-02-21T09:47:27.592Z,44.27
2018-02-21T09:49:55.926Z,44.33
2018-02-21T09:52:23.497Z,42.50
2018-02-21T09:54:51.093Z,44.23
2018-02-21T09:57:18.674Z,43.83
2018-02-21T09:59:46.272Z,46.63
2018-02-21T10:02:14.649Z,50.30
2018-02-21T10:04:43.018Z,41.00
2018-02-21T10:07:10.598Z,44.93
2018-02-21T10:09:38.192Z,48.33
2018-02-21T10:12:06.529Z,38.70
2018-02-21T10:14:34.141Z,42.80
2018-02-21T10:17:01.715Z,39.10
2018-02-21T10:19:29.309Z,35.73
2018-02-21T10:21:56.890Z,35.80
2018-02-21T10:24:24.508Z,38.63
2018-02-21T10:26:52.087Z,32.20
2018-02-21T10:29:19.673Z,32.00
2018-02-21T10:31:47.244Z,34.43
2018-02-21T10:34:14.828Z,25.40
2018-02-21T10:36:43.165Z,33.63
2018-02-21T10:39:10.790Z,32.20
2018-02-21T10:41:39.148Z,29.83
2018-02-21T10:44:06.729Z,28.17
2018-02-21T10:46:34.332Z,29.43
2018-02-21T10:49:01.917Z,28.87
2018-02-21T10:51:29.512Z,27.33
2018-02-21T10:53:57.085Z,28.83
2018-02-21T10:56:24.676Z,18.87
2018-02-21T10:58:52.255Z,29.10
2018-02-21T11:01:25.302Z,34.63
2018-02-21T11:03:52.921Z,23.13
2018-02-21T11:06:20.513Z,22.40
2018-02-21T11:08:48.084Z,20.77
2018-02-21T11:11:15.681Z,19.03
2018-02-21T11:13:44.045Z,16.47
2018-02-21T11:16:11.671Z,19.67
2018-02-21T11:18:39.260Z,23.50
2018-02-21T11:21:06.837Z,13.77
2018-02-21T11:23:34.498Z,16.93
2018-02-21T11:26:02.806Z,21.13
2018-02-21T11:28:30.405Z,14.73
2018-02-21T11:30:57.982Z,13.67
2018-02-21T11:33:25.581Z,14.63
2018-02-21T11:35:53.168Z,21.10
2018-02-21T11:38:20.762Z,23.67
2018-02-21T11:40:48.336Z,20.37
2018-02-21T11:43:15.936Z,26.23
2018-02-21T11:45:43.524Z,22.27
2018-02-21T11:48:11.893Z,22.90
2018-02-21T11:50:39.498Z,25.90
2018-02-21T11:53:07.865Z,26.70
2018-02-21T11:55:35.440Z,22.67
2018-02-21T11:58:03.037Z,21.70
2018-02-21T12:00:30.608Z,26.00
2018-02-21T12:02:58.257Z,24.20
2018-02-21T12:05:25.836Z,22.93
2018-02-21T12:07:54.177Z,25.40
2018-02-21T12:10:21.819Z,24.03
2018-02-21T12:12:49.380Z,30.53
2018-02-21T12:15:17.736Z,23.87
2018-02-21T12:17:45.308Z,19.37
2018-02-21T12:20:12.893Z,17.47
2018-02-21T12:22:40.460Z,19.03
2018-02-21T12:25:08.052Z,21.60
2018-02-21T12:27:36.396Z,20.67
2018-02-21T12:30:03.988Z,20.33
2018-02-21T12:32:34.152Z,17.17
2018-02-21T12:35:02.514Z,21.10
2018-02-21T12:37:30.105Z,52.27
2018-02-21T12:39:59.377Z,31.93
2018-02-21T12:42:26.953Z,18.37
2018-02-21T12:44:54.544Z,16.43
2018-02-21T12:47:22.121Z,21.63
2018-02-21T12:49:49.725Z,22.40
2018-02-21T12:52:17.308Z,15.73
2018-02-21T12:54:44.914Z,21.53
2018-02-21T12:57:12.482Z,15.73
2018-02-21T12:59:40.064Z,14.07
2018-02-21T13:02:07.660Z,19.57
2018-02-21T13:04:35.251Z,17.93
2018-02-21T13:07:03.608Z,20.23
2018-02-21T13:09:31.177Z,18.60
2018-02-21T13:11:58.760Z,16.97
2018-02-21T13:14:26.344Z,17.07
2018-02-21T13:16:54.721Z,22.43
2018-02-21T13:19:22.304Z,23.67
2018-02-21T13:21:49.905Z,19.97
2018-02-21T13:24:17.485Z,17.47
2018-02-21T13:26:45.088Z,18.63
2018-02-21T13:29:12.685Z,23.00
2018-02-21T13:31:40.284Z,18.03
2018-02-21T13:34:08.624Z,20.13
2018-02-21T13:36:36.212Z,23.60
2018-02-21T13:39:03.812Z,18.83
2018-02-21T13:41:32.156Z,29.63
2018-02-21T13:43:59.762Z,23.77
2018-02-21T13:46:27.337Z,18.07
2018-02-21T13:48:54.928Z,22.83
2018-02-21T13:51:23.280Z,23.17
2018-02-21T13:53:50.882Z,19.40
2018-02-21T13:56:19.237Z,32.57
2018-02-21T13:58:46.825Z,23.80
2018-02-21T14:01:14.421Z,21.77
2018-02-21T14:03:42.048Z,18.80
2018-02-21T14:06:09.642Z,22.57
2018-02-21T14:08:37.262Z,24.60
2018-02-21T14:11:04.840Z,22.47
2018-02-21T14:13:32.421Z,21.57
2018-02-21T14:16:00.024Z,20.63
2018-02-21T14:18:28.689Z,21.53
2018-02-21T14:20:59.077Z,26.53
2018-02-21T14:23:30.055Z,22.43
2018-02-21T14:25:59.155Z,23.33
2018-02-21T14:28:27.957Z,24.43
2018-02-21T14:30:55.613Z,18.30
2018-02-21T14:33:23.185Z,22.87
2018-02-21T14:35:50.777Z,30.63
2018-02-21T14:38:19.121Z,28.33
2018-02-21T14:40:46.718Z,20.17
2018-02-21T14:43:14.360Z,25.23
2018-02-21T14:45:41.977Z,26.73
2018-02-21T14:48:10.321Z,20.83
2018-02-21T14:50:37.901Z,24.87
2018-02-21T14:53:05.834Z,24.57
2018-02-21T14:55:33.412Z,19.90
2018-02-21T14:58:01.019Z,25.60
2018-02-21T15:00:28.593Z,24.57
2018-02-21T15:02:56.189Z,23.10
2018-02-21T15:05:23.796Z,21.50
2018-02-21T15:07:52.157Z,24.57
2018-02-21T15:10:19.783Z,25.30
2018-02-21T15:12:47.601Z,24.33
2018-02-21T15:15:15.179Z,29.93
2018-02-21T15:17:42.822Z,26.60
2018-02-21T15:20:10.388Z,24.17
2018-02-21T15:22:37.995Z,24.73
2018-02-21T15:25:05.573Z,27.10
2018-02-21T15:27:33.165Z,27.10
2018-02-21T15:30:13.388Z,24.57
2018-02-21T15:32:41.252Z,26.83
2018-02-21T15:35:09.816Z,27.20
2018-02-21T15:37:37.517Z,26.43
2018-02-21T15:40:05.172Z,28.80
2018-02-21T15:42:32.807Z,30.57
2018-02-21T15:45:01.202Z,29.50
2018-02-21T15:47:28.791Z,29.17
2018-02-21T15:49:57.180Z,24.20
2018-02-21T15:52:25.536Z,25.70
2018-02-21T15:54:53.124Z,25.10
2018-02-21T15:57:20.709Z,27.63
2018-02-21T15:59:49.065Z,25.10
2018-02-21T16:02:16.650Z,29.07
2018-02-21T16:04:44.220Z,23.60
2018-02-21T16:07:11.818Z,26.43
2018-02-21T16:09:40.181Z,29.87
2018-02-21T16:12:09.819Z,32.00
2018-02-21T16:14:37.393Z,27.97
2018-02-21T16:17:04.987Z,30.87
2018-02-21T16:19:33.325Z,29.17
2018-02-21T16:22:00.918Z,29.90
2018-02-21T16:24:28.504Z,22.20
2018-02-21T16:26:56.864Z,25.13
2018-02-21T16:29:24.480Z,23.93
2018-02-21T16:31:52.854Z,27.23
2018-02-21T16:34:21.199Z,20.47
2018-02-21T16:36:48.798Z,19.23
2018-02-21T16:39:16.365Z,19.50
2018-02-21T16:41:43.963Z,23.70
2018-02-21T16:44:12.315Z,19.83
2018-02-21T16:46:40.681Z,23.67
2018-02-21T16:49:08.261Z,20.10
2018-02-21T16:51:35.865Z,23.37
2018-02-21T16:54:09.006Z,18.53
2018-02-21T16:56:37.382Z,25.50
2018-02-21T16:59:05.728Z,21.07
2018-02-21T17:01:33.300Z,26.30
2018-02-21T17:04:00.887Z,22.93
2018-02-21T17:06:29.451Z,21.63
2018-02-21T17:08:57.104Z,24.43
2018-02-21T17:11:28.486Z,29.03
2018-02-21T17:13:58.683Z,38.47
2018-02-21T17:16:29.175Z,50.57
2018-02-21T17:18:57.156Z,33.73
2018-02-21T17:21:24.753Z,22.10
2018-02-21T17:23:53.138Z,31.00
2018-02-21T17:26:20.711Z,23.87
2018-02-21T17:28:48.315Z,21.70
2018-02-21T17:31:16.028Z,22.10
2018-02-21T17:33:43.628Z,24.50
2018-02-21T17:36:11.200Z,28.63
2018-02-21T17:38:38.864Z,30.97
2018-02-21T17:41:15.566Z,21.10
2018-02-21T17:43:49.164Z,20.40
2018-02-21T17:46:18.252Z,16.43
2018-02-21T17:48:45.832Z,17.00
2018-02-21T17:51:13.425Z,20.10
2018-02-21T17:53:40.992Z,16.57
2018-02-21T17:56:08.605Z,25.80
2018-02-21T17:58:36.183Z,34.13
2018-02-21T18:01:04.565Z,29.83
2018-02-21T18:03:32.135Z,15.70
2018-02-21T18:06:00.510Z,32.13
2018-02-21T18:08:29.597Z,22.10
2018-02-21T18:10:57.221Z,20.20
2018-02-21T18:13:25.567Z,20.87
2018-02-21T18:15:53.516Z,16.60
2018-02-21T18:18:21.379Z,27.67
2018-02-21T18:20:49.748Z,27.27
2018-02-21T18:23:18.099Z,26.10
2018-02-21T18:25:45.697Z,24.97
2018-02-21T18:28:13.268Z,24.70
2018-02-21T18:30:40.864Z,18.00
2018-02-21T18:33:09.209Z,17.87
2018-02-21T18:35:36.808Z,16.20
2018-02-21T18:38:05.185Z,17.03
2018-02-21T18:40:32.752Z,18.20
2018-02-21T18:43:00.350Z,18.13
2018-02-21T18:45:34.174Z,17.10
2018-02-21T18:48:08.451Z,18.63
2018-02-21T18:50:43.350Z,17.67
2018-02-21T18:53:12.114Z,22.03
2018-02-21T18:55:39.699Z,23.03
2018-02-21T18:58:13.233Z,18.47
2018-02-21T19:00:40.852Z,18.17
2018-02-21T19:03:08.442Z,17.27
2018-02-21T19:05:37.492Z,13.03
2018-02-21T19:08:05.850Z,18.40
2018-02-21T19:10:33.428Z,22.03
2018-02-21T19:13:01.030Z,20.60
2018-02-21T19:15:29.388Z,18.40
2018-02-21T19:17:57.785Z,20.00
2018-02-21T19:20:25.441Z,17.27
2018-02-21T19:22:53.056Z,22.87
2018-02-21T19:25:21.409Z,23.10
2018-02-21T19:27:49.216Z,18.20
2018-02-21T19:30:17.576Z,21.27
2018-02-21T19:32:46.130Z,20.23
2018-02-21T19:35:13.732Z,21.60
2018-02-21T19:37:41.306Z,22.60
2018-02-21T19:40:20.404Z,24.13
2018-02-21T19:42:48.017Z,29.13
2018-02-21T19:45:15.615Z,28.13
2018-02-21T19:47:43.195Z,28.90
2018-02-21T19:50:10.788Z,23.50
2018-02-21T19:52:40.144Z,29.43
2018-02-21T19:55:11.093Z,22.73
2018-02-21T19:57:38.686Z,25.60
2018-02-21T20:00:06.294Z,22.13
2018-02-21T20:02:33.920Z,28.23
2018-02-21T20:05:01.545Z,39.83
2018-02-21T20:07:29.128Z,34.13
2018-02-21T20:09:56.737Z,34.47
2018-02-21T20:12:24.333Z,25.53
2018-02-21T20:14:51.916Z,27.53
2018-02-21T20:17:19.519Z,28.37
2018-02-21T20:19:47.102Z,35.40
2018-02-21T20:22:14.722Z,31.13
2018-02-21T20:24:42.312Z,31.17
2018-02-21T20:27:11.692Z,33.67
2018-02-21T20:29:39.294Z,27.17
2018-02-21T20:32:06.909Z,26.93
2018-02-21T20:34:34.491Z,27.37
2018-02-21T20:37:02.166Z,30.07
2018-02-21T20:39:29.766Z,29.33
2018-02-21T20:41:57.362Z,34.43
2018-02-21T20:44:24.993Z,35.20
2018-02-21T20:46:52.625Z,31.60
2018-02-21T20:49:20.286Z,38.67
2018-02-21T20:51:47.841Z,35.97
2018-02-21T20:54:15.446Z,33.03
2018-02-21T20:56:43.036Z,32.13
2018-02-21T20:59:10.635Z,34.40
2018-02-21T21:01:38.220Z,38.13
2018-02-21T21:04:05.815Z,38.40
2018-02-21T21:06:33.405Z,39.93
2018-02-21T21:09:01.767Z,41.20
2018-02-21T21:11:29.357Z,34.23
2018-02-21T21:13:57.728Z,38.93
2018-02-21T21:16:25.307Z,40.83
2018-02-21T21:18:52.956Z,40.37
2018-02-21T21:21:20.544Z,45.87
2018-02-21T21:23:48.148Z,47.10
2018-02-21T21:26:16.490Z,41.23
2018-02-21T21:28:44.092Z,48.90
2018-02-21T21:31:11.826Z,39.90
2018-02-21T21:33:40.481Z,45.13
2018-02-21T21:36:08.836Z,40.87
2018-02-21T21:38:36.420Z,42.97
2018-02-21T21:41:04.039Z,45.70
2018-02-21T21:43:31.613Z,46.33
2018-02-21T21:45:59.217Z,46.13
2018-02-21T21:48:26.789Z,45.53
2018-02-21T21:50:54.397Z,41.87
2018-02-21T21:53:22.750Z,42.93
2018-02-21T21:55:50.372Z,42.43
2018-02-21T21:58:18.721Z,42.43
2018-02-21T22:00:46.370Z,42.60
2018-02-21T22:03:13.936Z,37.70
2018-02-21T22:05:41.532Z,46.83
2018-02-21T22:08:09.116Z,49.43
2018-02-21T22:10:36.708Z,48.67
2018-02-21T22:13:04.280Z,39.57
2018-02-21T22:15:31.851Z,47.20
2018-02-21T22:18:00.217Z,46.77
2018-02-21T22:20:27.804Z,51.67
2018-02-21T22:22:56.192Z,50.83
2018-02-21T22:25:23.807Z,45.60
2018-02-21T22:27:51.399Z,41.83
2018-02-21T22:30:18.979Z,44.27
2018-02-21T22:32:46.577Z,47.50
2018-02-21T22:35:14.155Z,44.40
2018-02-21T22:37:41.748Z,47.73
2018-02-21T22:40:10.109Z,58.87
2018-02-21T22:42:37.707Z,42.57
2018-02-21T22:45:06.054Z,41.30
2018-02-21T22:47:33.653Z,38.50
2018-02-21T22:50:01.241Z,52.90
2018-02-21T22:52:29.596Z,43.07
2018-02-21T22:54:57.189Z,56.60
2018-02-21T22:57:24.784Z,44.40
2018-02-21T22:59:53.144Z,47.70
2018-02-21T23:02:20.764Z,42.83
2018-02-21T23:04:48.356Z,52.33
2018-02-21T23:07:15.936Z,51.33
2018-02-21T23:09:43.540Z,41.07
2018-02-21T23:12:11.135Z,52.77
2018-02-21T23:14:38.768Z,49.63
2018-02-21T23:17:06.352Z,50.87
2018-02-21T23:19:33.933Z,50.37
2018-02-21T23:22:01.536Z,56.10
2018-02-21T23:24:29.116Z,58.17
2018-02-21T23:26:56.903Z,47.87
2018-02-21T23:29:24.484Z,34.97
2018-02-21T23:31:52.076Z,44.73
2018-02-21T23:34:19.652Z,32.23
2018-02-21T23:36:47.249Z,34.50
2018-02-21T23:39:14.824Z,39.30
2018-02-21T23:41:42.422Z,54.17
2018-02-21T23:44:10.008Z,54.13
2018-02-21T23:46:37.620Z,47.80
2018-02-21T23:49:05.200Z,52.83
2018-02-21T23:51:32.828Z,52.37
2018-02-21T23:54:00.408Z,48.73
2018-02-21T23:56:27.985Z,51.80
2018-02-21T23:58:55.598Z,46.47
